Ir al Módulo  



logo_vatsim
logo_vatsur

 


NUEVO SECTOR FILE COLOMBIA
Octubre 16 de 2014

Los invitamos a descargar el nuevo SectorFile de Colombia!




Festival Cuna de Acordeones
Octubre 12 de 2014

Los esperamos a todos en Riohacha y Valledupar el próximo Viernes 17 de Octubre!




Nuevo Escenario de Bogotá Recomendado
Septiembre 26 de 2014

Los invitamos a conocer el escenario desarrollado por LR30 Scenery Design de SKBO. Vatsim Colombia lo reconoce como escenario oficial de la red.

Links:

FS9: http://www.mediafire.com/download/gfuqcb7qb8r9q9n/BOG_2014_FS9.rar
FSX: http://www.mediafire.com/download/b8831kleqc5nc13/LR30_SKBO_V2.rar




 

 
Untitled Document
SKAR 222200Z 00000KT 9000 2000N -DZ BKN010 SCT080 20/19 A3008 RMK AD OPR IMC
SKBG 222200Z 33003KT 9999 FEW010 SCT070 BKN200 23/19 A2994
SKBO 222200Z 03004KT 8000 VCSH FEW010 BKN015 13/12 A3031 REDZ
SKBQ 222200Z 01004KT 9999 FEW015 SCT200 29/26 A2979
SKCG 222200Z 28007KT 9999 FEW017 BKN200 30/26 A2976
SKCL 222200Z 04010KT 4000 RA SCT017 BKN090 20/19 A2998 RMK AD OPR IMC
SKPE 222200Z 18007KT 9999 VCSH SCT017 SCT090 20/17 A3007 RMK VCSH/S/SW
SKRG 222200Z 11008KT 9999 VCSH BKN018CB SCT200 18/14 A3023 RMK CB/E/SE/S/SW VCSH/SE